<?xml version='1.0' encoding='UTF-8'?>
<gpx xmlns="http://www.topografix.com/GPX/1/1" creator="www.balnam.be" version="1.1" xmlns:xsi="http://www.w3.org/2001/XMLSchema-instance" xsi:schemaLocation="http://www.topografix.com/GPX/1/1 http://www.topografix.com/GPX/1/1/gpx.xsd">
<trk>
<name>hlsls100</name>
<cmt>r</cmt>
<desc>Lessines Sentier n°100 Rue Basse Couture</desc>
<link href="https://chemins.be/lessines/sentier/100"/><trkseg>
<trkpt lat="50.689395" lon="3.828161"><time>2026-05-02T18:32:09Z</time></trkpt>
<trkpt lat="50.690118" lon="3.826344"><time>2026-05-02T18:42:09Z</time></trkpt>
<trkpt lat="50.690695" lon="3.824850"><time>2026-05-02T18:52:09Z</time></trkpt>
<trkpt lat="50.690822" lon="3.824227"><time>2026-05-02T19:02:09Z</time></trkpt>
</trkseg>
</trk>
<trk>
<name>hlsls101</name>
<cmt>q</cmt>
<desc>Lessines Sentier n°101 </desc>
<link href="https://chemins.be/lessines/sentier/101"/><trkseg>
<trkpt lat="50.693473" lon="3.826974"><time>2026-05-02T18:32:09Z</time></trkpt>
<trkpt lat="50.691846" lon="3.827081"><time>2026-05-02T18:42:09Z</time></trkpt>
<trkpt lat="50.690063" lon="3.826478"><time>2026-05-02T18:52:09Z</time></trkpt>
</trkseg>
</trk>
<trk>
<name>hlsls102</name>
<cmt>q</cmt>
<desc>Lessines Sentier n°102 </desc>
<link href="https://chemins.be/lessines/sentier/102"/><trkseg>
<trkpt lat="50.690505" lon="3.828376"><time>2026-05-02T18:32:09Z</time></trkpt>
<trkpt lat="50.689629" lon="3.827590"><time>2026-05-02T18:42:09Z</time></trkpt>
<trkpt lat="50.688136" lon="3.825548"><time>2026-05-02T18:52:09Z</time></trkpt>
</trkseg>
</trk>
<trk>
<name>hlsls103</name>
<cmt>q</cmt>
<desc>Lessines Sentier n°103 </desc>
<link href="https://chemins.be/lessines/sentier/103"/><trkseg>
<trkpt lat="50.692070" lon="3.830269"><time>2026-05-02T18:32:09Z</time></trkpt>
<trkpt lat="50.693411" lon="3.829027"><time>2026-05-02T18:42:09Z</time></trkpt>
</trkseg></trk>
<trk>
<name>hlsls103</name>
<cmt>s</cmt>
<desc>Lessines Sentier n°103 </desc>
<link href="https://chemins.be/lessines/sentier/103"/><trkseg>
<trkpt lat="50.693411" lon="3.829027"><time>2026-05-02T18:42:09Z</time></trkpt>
<trkpt lat="50.693878" lon="3.828595"><time>2026-05-02T18:52:09Z</time></trkpt>
</trkseg></trk>
<trk>
<name>hlsls103</name>
<cmt>q</cmt>
<desc>Lessines Sentier n°103 </desc>
<link href="https://chemins.be/lessines/sentier/103"/><trkseg>
<trkpt lat="50.693878" lon="3.828595"><time>2026-05-02T18:52:09Z</time></trkpt>
<trkpt lat="50.694433" lon="3.828870"><time>2026-05-02T19:02:09Z</time></trkpt>
<trkpt lat="50.694784" lon="3.828810"><time>2026-05-02T19:12:09Z</time></trkpt>
</trkseg></trk>
<trk>
<name>hlsls103</name>
<cmt>s</cmt>
<desc>Lessines Sentier n°103 </desc>
<link href="https://chemins.be/lessines/sentier/103"/><trkseg>
<trkpt lat="50.694784" lon="3.828810"><time>2026-05-02T19:12:09Z</time></trkpt>
<trkpt lat="50.695330" lon="3.828763"><time>2026-05-02T19:22:09Z</time></trkpt>
<trkpt lat="50.695522" lon="3.828838"><time>2026-05-02T19:32:09Z</time></trkpt>
</trkseg>
</trk>
<trk>
<name>hlsls104</name>
<cmt>q</cmt>
<desc>Lessines Sentier n°104 </desc>
<link href="https://chemins.be/lessines/sentier/104"/><trkseg>
<trkpt lat="50.706194" lon="3.838742"><time>2026-05-02T18:32:09Z</time></trkpt>
<trkpt lat="50.706226" lon="3.840725"><time>2026-05-02T18:42:09Z</time></trkpt>
</trkseg>
</trk>
<trk>
<name>hlsls108</name>
<cmt>q</cmt>
<desc>Lessines Sentier n°108 Chemin d'Ath</desc>
<link href="https://chemins.be/lessines/sentier/108"/><trkseg>
<trkpt lat="50.707877" lon="3.826344"><time>2026-05-02T18:32:09Z</time></trkpt>
<trkpt lat="50.707947" lon="3.826451"><time>2026-05-02T18:42:09Z</time></trkpt>
<trkpt lat="50.708373" lon="3.827953"><time>2026-05-02T18:52:09Z</time></trkpt>
<trkpt lat="50.708353" lon="3.828057"><time>2026-05-02T19:02:09Z</time></trkpt>
</trkseg>
</trk>
<trk>
<name>hlsls11</name>
<cmt>v</cmt>
<desc>Lessines Chemin n°11 </desc>
<link href="https://chemins.be/lessines/chemin/11"/><trkseg>
<trkpt lat="50.717926" lon="3.819358"><time>2026-05-02T18:32:09Z</time></trkpt>
<trkpt lat="50.717891" lon="3.819628"><time>2026-05-02T18:42:09Z</time></trkpt>
<trkpt lat="50.717856" lon="3.819897"><time>2026-05-02T18:52:09Z</time></trkpt>
<trkpt lat="50.717884" lon="3.820123"><time>2026-05-02T19:02:09Z</time></trkpt>
<trkpt lat="50.718003" lon="3.820448"><time>2026-05-02T19:12:09Z</time></trkpt>
<trkpt lat="50.718166" lon="3.820771"><time>2026-05-02T19:22:09Z</time></trkpt>
<trkpt lat="50.718267" lon="3.821124"><time>2026-05-02T19:32:09Z</time></trkpt>
<trkpt lat="50.718304" lon="3.821492"><time>2026-05-02T19:42:09Z</time></trkpt>
<trkpt lat="50.718305" lon="3.821704"><time>2026-05-02T19:52:09Z</time></trkpt>
<trkpt lat="50.718262" lon="3.822002"><time>2026-05-02T20:02:09Z</time></trkpt>
<trkpt lat="50.718200" lon="3.822258"><time>2026-05-02T20:12:09Z</time></trkpt>
<trkpt lat="50.718201" lon="3.822371"><time>2026-05-02T20:22:09Z</time></trkpt>
<trkpt lat="50.718256" lon="3.822597"><time>2026-05-02T20:32:09Z</time></trkpt>
<trkpt lat="50.718256" lon="3.822739"><time>2026-05-02T20:42:09Z</time></trkpt>
<trkpt lat="50.718169" lon="3.823221"><time>2026-05-02T20:52:09Z</time></trkpt>
<trkpt lat="50.718142" lon="3.823391"><time>2026-05-02T21:02:09Z</time></trkpt>
<trkpt lat="50.718207" lon="3.823674"><time>2026-05-02T21:12:09Z</time></trkpt>
<trkpt lat="50.718270" lon="3.823829"><time>2026-05-02T21:22:09Z</time></trkpt>
<trkpt lat="50.718370" lon="3.823969"><time>2026-05-02T21:32:09Z</time></trkpt>
<trkpt lat="50.718478" lon="3.824081"><time>2026-05-02T21:42:09Z</time></trkpt>
<trkpt lat="50.718578" lon="3.824151"><time>2026-05-02T21:52:09Z</time></trkpt>
<trkpt lat="50.718677" lon="3.824207"><time>2026-05-02T22:02:09Z</time></trkpt>
<trkpt lat="50.718803" lon="3.824248"><time>2026-05-02T22:12:09Z</time></trkpt>
<trkpt lat="50.718974" lon="3.824345"><time>2026-05-02T22:22:09Z</time></trkpt>
<trkpt lat="50.719100" lon="3.824442"><time>2026-05-02T22:32:09Z</time></trkpt>
</trkseg>
</trk>
<trk>
<name>hlsls13</name>
<cmt>r</cmt>
<desc>Lessines Chemin n°13 Chemin du Tencul</desc>
<link href="https://chemins.be/lessines/chemin/13"/><trkseg>
<trkpt lat="50.713580" lon="3.818004"><time>2026-05-02T18:32:09Z</time></trkpt>
<trkpt lat="50.713231" lon="3.816958"><time>2026-05-02T18:42:09Z</time></trkpt>
</trkseg></trk>
<trk>
<name>hlsls13</name>
<cmt>v</cmt>
<desc>Lessines Chemin n°13 Chemin du Tencul</desc>
<link href="https://chemins.be/lessines/chemin/13"/><trkseg>
<trkpt lat="50.713231" lon="3.816958"><time>2026-05-02T18:42:09Z</time></trkpt>
<trkpt lat="50.713505" lon="3.815969"><time>2026-05-02T18:52:09Z</time></trkpt>
<trkpt lat="50.713546" lon="3.815284"><time>2026-05-02T19:02:09Z</time></trkpt>
<trkpt lat="50.713357" lon="3.814195"><time>2026-05-02T19:12:09Z</time></trkpt>
<trkpt lat="50.713297" lon="3.813587"><time>2026-05-02T19:22:09Z</time></trkpt>
</trkseg>
</trk>
<trk>
<name>hlsls16</name>
<cmt>v</cmt>
<desc>Lessines Chemin n°16 Chemin du Comte d'Egmont / Chaussée Gabrielle Richet</desc>
<link href="https://chemins.be/lessines/chemin/16"/><trkseg>
<trkpt lat="50.707718" lon="3.809534"><time>2026-05-02T18:32:09Z</time></trkpt>
<trkpt lat="50.706732" lon="3.811988"><time>2026-05-02T18:42:09Z</time></trkpt>
</trkseg></trk>
<trk>
<name>hlsls16</name>
<cmt>d</cmt>
<desc>Lessines Chemin n°16 Chemin du Comte d'Egmont / Chaussée Gabrielle Richet</desc>
<link href="https://chemins.be/lessines/chemin/16"/><trkseg>
<trkpt lat="50.706732" lon="3.811988"><time>2026-05-02T18:42:09Z</time></trkpt>
<trkpt lat="50.706571" lon="3.812732"><time>2026-05-02T18:52:09Z</time></trkpt>
</trkseg></trk>
<trk>
<name>hlsls16</name>
<cmt>v</cmt>
<desc>Lessines Chemin n°16 Chemin du Comte d'Egmont / Chaussée Gabrielle Richet</desc>
<link href="https://chemins.be/lessines/chemin/16"/><trkseg>
<trkpt lat="50.706571" lon="3.812732"><time>2026-05-02T18:52:09Z</time></trkpt>
<trkpt lat="50.706349" lon="3.814271"><time>2026-05-02T19:02:09Z</time></trkpt>
<trkpt lat="50.705677" lon="3.816373"><time>2026-05-02T19:12:09Z</time></trkpt>
<trkpt lat="50.705700" lon="3.818403"><time>2026-05-02T19:22:09Z</time></trkpt>
</trkseg></trk>
<trk>
<name>hlsls16</name>
<cmt>r</cmt>
<desc>Lessines Chemin n°16 Chemin du Comte d'Egmont / Chaussée Gabrielle Richet</desc>
<link href="https://chemins.be/lessines/chemin/16"/><trkseg>
<trkpt lat="50.705700" lon="3.818403"><time>2026-05-02T19:22:09Z</time></trkpt>
<trkpt lat="50.705859" lon="3.823736"><time>2026-05-02T19:32:09Z</time></trkpt>
<trkpt lat="50.704892" lon="3.826136"><time>2026-05-02T19:42:09Z</time></trkpt>
<trkpt lat="50.704792" lon="3.827646"><time>2026-05-02T19:52:09Z</time></trkpt>
<trkpt lat="50.704852" lon="3.832700"><time>2026-05-02T20:02:09Z</time></trkpt>
<trkpt lat="50.703218" lon="3.834769"><time>2026-05-02T20:12:09Z</time></trkpt>
<trkpt lat="50.702287" lon="3.836351"><time>2026-05-02T20:22:09Z</time></trkpt>
<trkpt lat="50.702629" lon="3.838004"><time>2026-05-02T20:32:09Z</time></trkpt>
<trkpt lat="50.703324" lon="3.839546"><time>2026-05-02T20:42:09Z</time></trkpt>
</trkseg></trk>
<trk>
<name>hlsls16</name>
<cmt>s</cmt>
<desc>Lessines Chemin n°16 Chemin du Comte d'Egmont / Chaussée Gabrielle Richet</desc>
<link href="https://chemins.be/lessines/chemin/16"/><trkseg>
<trkpt lat="50.703324" lon="3.839546"><time>2026-05-02T20:42:09Z</time></trkpt>
<trkpt lat="50.702818" lon="3.840356"><time>2026-05-02T20:52:09Z</time></trkpt>
<trkpt lat="50.702883" lon="3.841926"><time>2026-05-02T21:02:09Z</time></trkpt>
<trkpt lat="50.702677" lon="3.843128"><time>2026-05-02T21:12:09Z</time></trkpt>
<trkpt lat="50.703307" lon="3.844536"><time>2026-05-02T21:22:09Z</time></trkpt>
</trkseg></trk>
<trk>
<name>hlsls16</name>
<cmt>r</cmt>
<desc>Lessines Chemin n°16 Chemin du Comte d'Egmont / Chaussée Gabrielle Richet</desc>
<link href="https://chemins.be/lessines/chemin/16"/><trkseg>
<trkpt lat="50.703307" lon="3.844536"><time>2026-05-02T21:22:09Z</time></trkpt>
<trkpt lat="50.702579" lon="3.845214"><time>2026-05-02T21:32:09Z</time></trkpt>
</trkseg></trk>
<trk>
<name>hlsls16</name>
<cmt>s</cmt>
<desc>Lessines Chemin n°16 Chemin du Comte d'Egmont / Chaussée Gabrielle Richet</desc>
<link href="https://chemins.be/lessines/chemin/16"/><trkseg>
<trkpt lat="50.702579" lon="3.845214"><time>2026-05-02T21:32:09Z</time></trkpt>
<trkpt lat="50.702601" lon="3.846604"><time>2026-05-02T21:42:09Z</time></trkpt>
<trkpt lat="50.702182" lon="3.847557"><time>2026-05-02T21:52:09Z</time></trkpt>
<trkpt lat="50.700986" lon="3.849325"><time>2026-05-02T22:02:09Z</time></trkpt>
<trkpt lat="50.700627" lon="3.850690"><time>2026-05-02T22:12:09Z</time></trkpt>
<trkpt lat="50.701024" lon="3.852484"><time>2026-05-02T22:22:09Z</time></trkpt>
</trkseg>
</trk>
<trk>
<name>hlsls18</name>
<cmt>v</cmt>
<desc>Lessines Chemin n°18 </desc>
<link href="https://chemins.be/lessines/chemin/18"/><trkseg>
<trkpt lat="50.704466" lon="3.815614"><time>2026-05-02T18:32:09Z</time></trkpt>
<trkpt lat="50.703414" lon="3.816075"><time>2026-05-02T18:42:09Z</time></trkpt>
<trkpt lat="50.702323" lon="3.817716"><time>2026-05-02T18:52:09Z</time></trkpt>
<trkpt lat="50.700661" lon="3.819071"><time>2026-05-02T19:02:09Z</time></trkpt>
<trkpt lat="50.700263" lon="3.819754"><time>2026-05-02T19:12:09Z</time></trkpt>
<trkpt lat="50.700213" lon="3.821574"><time>2026-05-02T19:22:09Z</time></trkpt>
<trkpt lat="50.700273" lon="3.822695"><time>2026-05-02T19:32:09Z</time></trkpt>
</trkseg>
</trk>
<trk>
<name>hlsls19</name>
<cmt>v</cmt>
<desc>Lessines Chemin n°19 </desc>
<link href="https://chemins.be/lessines/chemin/19"/><trkseg>
<trkpt lat="50.690845" lon="3.824256"><time>2026-05-02T18:32:09Z</time></trkpt>
<trkpt lat="50.691718" lon="3.824983"><time>2026-05-02T18:42:09Z</time></trkpt>
<trkpt lat="50.692911" lon="3.825801"><time>2026-05-02T18:52:09Z</time></trkpt>
<trkpt lat="50.693541" lon="3.827060"><time>2026-05-02T19:02:09Z</time></trkpt>
<trkpt lat="50.693746" lon="3.827154"><time>2026-05-02T19:12:09Z</time></trkpt>
</trkseg></trk>
<trk>
<name>hlsls19</name>
<cmt>s</cmt>
<desc>Lessines Chemin n°19 </desc>
<link href="https://chemins.be/lessines/chemin/19"/><trkseg>
<trkpt lat="50.693746" lon="3.827154"><time>2026-05-02T19:12:09Z</time></trkpt>
<trkpt lat="50.694950" lon="3.827224"><time>2026-05-02T19:22:09Z</time></trkpt>
<trkpt lat="50.696766" lon="3.828176"><time>2026-05-02T19:32:09Z</time></trkpt>
<trkpt lat="50.697636" lon="3.829141"><time>2026-05-02T19:42:09Z</time></trkpt>
</trkseg>
</trk>
<trk>
<name>hlsls2</name>
<cmt>v</cmt>
<desc>Lessines Chemin n°2 Rue Ponchau de Wannebecq</desc>
<link href="https://chemins.be/lessines/chemin/2"/><trkseg>
<trkpt lat="50.701684" lon="3.811257"><time>2026-05-02T18:32:09Z</time></trkpt>
<trkpt lat="50.699925" lon="3.810710"><time>2026-05-02T18:42:09Z</time></trkpt>
</trkseg></trk>
<trk>
<name>hlsls2</name>
<cmt>d</cmt>
<desc>Lessines Chemin n°2 Rue Ponchau de Wannebecq</desc>
<link href="https://chemins.be/lessines/chemin/2"/><trkseg>
<trkpt lat="50.699925" lon="3.810710"><time>2026-05-02T18:42:09Z</time></trkpt>
<trkpt lat="50.698661" lon="3.810056"><time>2026-05-02T18:52:09Z</time></trkpt>
</trkseg>
</trk>
<trk>
<name>hlsls20</name>
<cmt>r</cmt>
<desc>Lessines Chemin n°20 Chemin du Long Royon</desc>
<link href="https://chemins.be/lessines/chemin/20"/><trkseg>
<trkpt lat="50.718540" lon="3.812546"><time>2026-05-02T18:32:09Z</time></trkpt>
<trkpt lat="50.719273" lon="3.810732"><time>2026-05-02T18:42:09Z</time></trkpt>
<trkpt lat="50.719117" lon="3.810121"><time>2026-05-02T18:52:09Z</time></trkpt>
<trkpt lat="50.719287" lon="3.809992"><time>2026-05-02T19:02:09Z</time></trkpt>
<trkpt lat="50.719470" lon="3.809885"><time>2026-05-02T19:12:09Z</time></trkpt>
</trkseg></trk>
<trk>
<name>hlsls20</name>
<cmt>v</cmt>
<desc>Lessines Chemin n°20 Chemin du Long Royon</desc>
<link href="https://chemins.be/lessines/chemin/20"/><trkseg>
<trkpt lat="50.719470" lon="3.809885"><time>2026-05-02T19:12:09Z</time></trkpt>
<trkpt lat="50.720061" lon="3.807814"><time>2026-05-02T19:22:09Z</time></trkpt>
</trkseg>
</trk>
<trk>
<name>hlsls22</name>
<cmt>q</cmt>
<desc>Lessines Chemin n°22 </desc>
<link href="https://chemins.be/lessines/chemin/22"/><trkseg>
<trkpt lat="50.702810" lon="3.812155"><time>2026-05-02T18:32:09Z</time></trkpt>
<trkpt lat="50.702542" lon="3.812824"><time>2026-05-02T18:42:09Z</time></trkpt>
</trkseg></trk>
<trk>
<name>hlsls22</name>
<cmt>v</cmt>
<desc>Lessines Chemin n°22 </desc>
<link href="https://chemins.be/lessines/chemin/22"/><trkseg>
<trkpt lat="50.702542" lon="3.812824"><time>2026-05-02T18:42:09Z</time></trkpt>
<trkpt lat="50.701500" lon="3.814823"><time>2026-05-02T18:52:09Z</time></trkpt>
<trkpt lat="50.701013" lon="3.815363"><time>2026-05-02T19:02:09Z</time></trkpt>
</trkseg>
</trk>
<trk>
<name>hlsls24</name>
<cmt>s</cmt>
<desc>Lessines Chemin n°24 </desc>
<link href="https://chemins.be/lessines/chemin/24"/><trkseg>
<trkpt lat="50.695763" lon="3.827715"><time>2026-05-02T18:32:09Z</time></trkpt>
<trkpt lat="50.695516" lon="3.828860"><time>2026-05-02T18:42:09Z</time></trkpt>
<trkpt lat="50.696218" lon="3.830014"><time>2026-05-02T18:52:09Z</time></trkpt>
<trkpt lat="50.697144" lon="3.830484"><time>2026-05-02T19:02:09Z</time></trkpt>
</trkseg></trk>
<trk>
<name>hlsls24</name>
<cmt>q</cmt>
<desc>Lessines Chemin n°24 </desc>
<link href="https://chemins.be/lessines/chemin/24"/><trkseg>
<trkpt lat="50.697144" lon="3.830484"><time>2026-05-02T19:02:09Z</time></trkpt>
<trkpt lat="50.698493" lon="3.832267"><time>2026-05-02T19:12:09Z</time></trkpt>
</trkseg></trk>
<trk>
<name>hlsls24</name>
<cmt>d</cmt>
<desc>Lessines Chemin n°24 </desc>
<link href="https://chemins.be/lessines/chemin/24"/><trkseg>
<trkpt lat="50.698493" lon="3.832267"><time>2026-05-02T19:12:09Z</time></trkpt>
<trkpt lat="50.698751" lon="3.832930"><time>2026-05-02T19:22:09Z</time></trkpt>
</trkseg></trk>
<trk>
<name>hlsls24</name>
<cmt>s</cmt>
<desc>Lessines Chemin n°24 </desc>
<link href="https://chemins.be/lessines/chemin/24"/><trkseg>
<trkpt lat="50.698751" lon="3.832930"><time>2026-05-02T19:22:09Z</time></trkpt>
<trkpt lat="50.698892" lon="3.833313"><time>2026-05-02T19:32:09Z</time></trkpt>
</trkseg></trk>
<trk>
<name>hlsls24</name>
<cmt>q</cmt>
<desc>Lessines Chemin n°24 </desc>
<link href="https://chemins.be/lessines/chemin/24"/><trkseg>
<trkpt lat="50.698892" lon="3.833313"><time>2026-05-02T19:32:09Z</time></trkpt>
<trkpt lat="50.699177" lon="3.834008"><time>2026-05-02T19:42:09Z</time></trkpt>
</trkseg></trk>
<trk>
<name>hlsls24</name>
<cmt>r</cmt>
<desc>Lessines Chemin n°24 </desc>
<link href="https://chemins.be/lessines/chemin/24"/><trkseg>
<trkpt lat="50.699177" lon="3.834008"><time>2026-05-02T19:42:09Z</time></trkpt>
<trkpt lat="50.699234" lon="3.834257"><time>2026-05-02T19:52:09Z</time></trkpt>
<trkpt lat="50.699231" lon="3.834713"><time>2026-05-02T20:02:09Z</time></trkpt>
</trkseg>
</trk>
<trk>
<name>hlsls27</name>
<cmt>v</cmt>
<desc>Lessines Chemin n°27 Ruelle Dooms</desc>
<link href="https://chemins.be/lessines/chemin/27"/><trkseg>
<trkpt lat="50.710931" lon="3.830951"><time>2026-05-02T18:32:09Z</time></trkpt>
<trkpt lat="50.711050" lon="3.831388"><time>2026-05-02T18:42:09Z</time></trkpt>
<trkpt lat="50.711216" lon="3.832151"><time>2026-05-02T18:52:09Z</time></trkpt>
</trkseg>
</trk>
<trk>
<name>hlsls28</name>
<cmt>q</cmt>
<desc>Lessines Chemin/sentier n°28 </desc>
<link href="https://chemins.be/lessines/chemin/28"/><trkseg>
<trkpt lat="50.691234" lon="3.829098"><time>2026-05-02T18:32:09Z</time></trkpt>
<trkpt lat="50.690913" lon="3.830536"><time>2026-05-02T18:42:09Z</time></trkpt>
<trkpt lat="50.690541" lon="3.830729"><time>2026-05-02T18:52:09Z</time></trkpt>
<trkpt lat="50.690070" lon="3.833676"><time>2026-05-02T19:02:09Z</time></trkpt>
<trkpt lat="50.690169" lon="3.834220"><time>2026-05-02T19:12:09Z</time></trkpt>
<trkpt lat="50.690011" lon="3.835106"><time>2026-05-02T19:22:09Z</time></trkpt>
</trkseg>
</trk>
<trk>
<name>hlsls29</name>
<cmt>v</cmt>
<desc>Lessines Chemin n°29 </desc>
<link href="https://chemins.be/lessines/chemin/29"/><trkseg>
<trkpt lat="50.702547" lon="3.837796"><time>2026-05-02T18:32:09Z</time></trkpt>
<trkpt lat="50.701392" lon="3.839899"><time>2026-05-02T18:42:09Z</time></trkpt>
<trkpt lat="50.701018" lon="3.840854"><time>2026-05-02T18:52:09Z</time></trkpt>
</trkseg>
</trk>
<trk>
<name>hlsls30</name>
<cmt>s</cmt>
<desc>Lessines Chemin n°30 </desc>
<link href="https://chemins.be/lessines/chemin/30"/><trkseg>
<trkpt lat="50.717343" lon="3.837822"><time>2026-05-02T18:32:09Z</time></trkpt>
<trkpt lat="50.717349" lon="3.837081"><time>2026-05-02T18:42:09Z</time></trkpt>
<trkpt lat="50.717711" lon="3.836828"><time>2026-05-02T18:52:09Z</time></trkpt>
</trkseg></trk>
<trk>
<name>hlsls30</name>
<cmt>r</cmt>
<desc>Lessines Chemin n°30 </desc>
<link href="https://chemins.be/lessines/chemin/30"/><trkseg>
<trkpt lat="50.717711" lon="3.836828"><time>2026-05-02T18:52:09Z</time></trkpt>
<trkpt lat="50.718201" lon="3.836774"><time>2026-05-02T19:02:09Z</time></trkpt>
</trkseg>
</trk>
<trk>
<name>hlsls31</name>
<cmt>q</cmt>
<desc>Lessines Chemin n°31 Chemin de Bronchenne</desc>
<link href="https://chemins.be/lessines/chemin/31"/><trkseg>
<trkpt lat="50.696218" lon="3.850929"><time>2026-05-02T18:32:09Z</time></trkpt>
<trkpt lat="50.696630" lon="3.852444"><time>2026-05-02T18:42:09Z</time></trkpt>
</trkseg></trk>
<trk>
<name>hlsls31</name>
<cmt>s</cmt>
<desc>Lessines Chemin n°31 Chemin de Bronchenne</desc>
<link href="https://chemins.be/lessines/chemin/31"/><trkseg>
<trkpt lat="50.696630" lon="3.852444"><time>2026-05-02T18:42:09Z</time></trkpt>
<trkpt lat="50.696756" lon="3.852906"><time>2026-05-02T18:52:09Z</time></trkpt>
</trkseg></trk>
<trk>
<name>hlsls31</name>
<cmt>q</cmt>
<desc>Lessines Chemin n°31 Chemin de Bronchenne</desc>
<link href="https://chemins.be/lessines/chemin/31"/><trkseg>
<trkpt lat="50.696756" lon="3.852906"><time>2026-05-02T18:52:09Z</time></trkpt>
<trkpt lat="50.696980" lon="3.853727"><time>2026-05-02T19:02:09Z</time></trkpt>
</trkseg></trk>
<trk>
<name>hlsls31</name>
<cmt>v</cmt>
<desc>Lessines Chemin n°31 Chemin de Bronchenne</desc>
<link href="https://chemins.be/lessines/chemin/31"/><trkseg>
<trkpt lat="50.696980" lon="3.853727"><time>2026-05-02T19:02:09Z</time></trkpt>
<trkpt lat="50.697360" lon="3.855341"><time>2026-05-02T19:12:09Z</time></trkpt>
</trkseg>
</trk>
<trk>
<name>hlsls32</name>
<cmt>v</cmt>
<desc>Lessines Sentier n°32 </desc>
<link href="https://chemins.be/lessines/sentier/32"/><trkseg>
<trkpt lat="50.715553" lon="3.819527"><time>2026-05-02T18:32:09Z</time></trkpt>
<trkpt lat="50.716517" lon="3.818015"><time>2026-05-02T18:42:09Z</time></trkpt>
<trkpt lat="50.717028" lon="3.817598"><time>2026-05-02T18:52:09Z</time></trkpt>
<trkpt lat="50.718297" lon="3.816139"><time>2026-05-02T19:02:09Z</time></trkpt>
</trkseg>
</trk>
<trk>
<name>hlsls33</name>
<cmt>v</cmt>
<desc>Lessines Sentier n°33 Chemin du Pavillon</desc>
<link href="https://chemins.be/lessines/sentier/33"/><trkseg>
<trkpt lat="50.718530" lon="3.812583"><time>2026-05-02T18:32:09Z</time></trkpt>
<trkpt lat="50.718127" lon="3.812120"><time>2026-05-02T18:42:09Z</time></trkpt>
<trkpt lat="50.717852" lon="3.811610"><time>2026-05-02T18:52:09Z</time></trkpt>
<trkpt lat="50.717833" lon="3.810902"><time>2026-05-02T19:02:09Z</time></trkpt>
<trkpt lat="50.717956" lon="3.809481"><time>2026-05-02T19:12:09Z</time></trkpt>
<trkpt lat="50.718126" lon="3.806486"><time>2026-05-02T19:22:09Z</time></trkpt>
<trkpt lat="50.718651" lon="3.803292"><time>2026-05-02T19:32:09Z</time></trkpt>
<trkpt lat="50.718724" lon="3.802390"><time>2026-05-02T19:42:09Z</time></trkpt>
</trkseg></trk>
<trk>
<name>hlsls33</name>
<cmt>q</cmt>
<desc>Lessines Sentier n°33 Chemin du Pavillon</desc>
<link href="https://chemins.be/lessines/sentier/33"/><trkseg>
<trkpt lat="50.718724" lon="3.802390"><time>2026-05-02T19:42:09Z</time></trkpt>
<trkpt lat="50.718384" lon="3.798182"><time>2026-05-02T19:52:09Z</time></trkpt>
<trkpt lat="50.718095" lon="3.796521"><time>2026-05-02T20:02:09Z</time></trkpt>
</trkseg>
</trk>
<trk>
<name>hlsls34</name>
<cmt>q</cmt>
<desc>Lessines Sentier n°34 </desc>
<link href="https://chemins.be/lessines/sentier/34"/><trkseg>
<trkpt lat="50.715663" lon="3.805117"><time>2026-05-02T18:32:09Z</time></trkpt>
<trkpt lat="50.714187" lon="3.803785"><time>2026-05-02T18:42:09Z</time></trkpt>
<trkpt lat="50.713503" lon="3.805307"><time>2026-05-02T18:52:09Z</time></trkpt>
</trkseg>
</trk>
<trk>
<name>hlsls35</name>
<cmt>q</cmt>
<desc>Lessines Chemin n°35 Rue du Caho</desc>
<link href="https://chemins.be/lessines/chemin/35"/><trkseg>
<trkpt lat="50.702334" lon="3.850836"><time>2026-05-02T18:32:09Z</time></trkpt>
<trkpt lat="50.700600" lon="3.850690"><time>2026-05-02T18:42:09Z</time></trkpt>
<trkpt lat="50.699817" lon="3.850939"><time>2026-05-02T18:52:09Z</time></trkpt>
<trkpt lat="50.699131" lon="3.851815"><time>2026-05-02T19:02:09Z</time></trkpt>
</trkseg></trk>
<trk>
<name>hlsls35</name>
<cmt>r</cmt>
<desc>Lessines Chemin n°35 Rue du Caho</desc>
<link href="https://chemins.be/lessines/chemin/35"/><trkseg>
<trkpt lat="50.699131" lon="3.851815"><time>2026-05-02T19:02:09Z</time></trkpt>
<trkpt lat="50.698475" lon="3.852424"><time>2026-05-02T19:12:09Z</time></trkpt>
<trkpt lat="50.698269" lon="3.852776"><time>2026-05-02T19:22:09Z</time></trkpt>
</trkseg></trk>
<trk>
<name>hlsls35</name>
<cmt>q</cmt>
<desc>Lessines Chemin n°35 Rue du Caho</desc>
<link href="https://chemins.be/lessines/chemin/35"/><trkseg>
<trkpt lat="50.698269" lon="3.852776"><time>2026-05-02T19:22:09Z</time></trkpt>
<trkpt lat="50.698229" lon="3.853986"><time>2026-05-02T19:32:09Z</time></trkpt>
<trkpt lat="50.698015" lon="3.855225"><time>2026-05-02T19:42:09Z</time></trkpt>
<trkpt lat="50.697788" lon="3.855452"><time>2026-05-02T19:52:09Z</time></trkpt>
</trkseg>
</trk>
<trk>
<name>hlsls39</name>
<cmt>v</cmt>
<desc>Lessines Sentier n°39 Ruelle de la Reinette</desc>
<link href="https://chemins.be/lessines/sentier/39"/><trkseg>
<trkpt lat="50.716701" lon="3.828605"><time>2026-05-02T18:32:09Z</time></trkpt>
<trkpt lat="50.716630" lon="3.828804"><time>2026-05-02T18:42:09Z</time></trkpt>
<trkpt lat="50.716379" lon="3.828835"><time>2026-05-02T18:52:09Z</time></trkpt>
<trkpt lat="50.715599" lon="3.829340"><time>2026-05-02T19:02:09Z</time></trkpt>
<trkpt lat="50.715437" lon="3.829228"><time>2026-05-02T19:12:09Z</time></trkpt>
<trkpt lat="50.715229" lon="3.828990"><time>2026-05-02T19:22:09Z</time></trkpt>
<trkpt lat="50.714422" lon="3.829566"><time>2026-05-02T19:32:09Z</time></trkpt>
</trkseg>
</trk>
<trk>
<name>hlsls45</name>
<cmt>q</cmt>
<desc>Lessines Chemin n°45 </desc>
<link href="https://chemins.be/lessines/chemin/45"/><trkseg>
<trkpt lat="50.687936" lon="3.825225"><time>2026-05-02T18:32:09Z</time></trkpt>
<trkpt lat="50.687211" lon="3.826552"><time>2026-05-02T18:42:09Z</time></trkpt>
</trkseg>
</trk>
<trk>
<name>hlsls46</name>
<cmt>v</cmt>
<desc>Lessines Chemin n°46 Belle Jeannette</desc>
<link href="https://chemins.be/lessines/chemin/46"/><trkseg>
<trkpt lat="50.710420" lon="3.831140"><time>2026-05-02T18:32:09Z</time></trkpt>
<trkpt lat="50.710450" lon="3.831791"><time>2026-05-02T18:42:09Z</time></trkpt>
</trkseg></trk>
<trk>
<name>hlsls46</name>
<cmt>q</cmt>
<desc>Lessines Chemin n°46 Belle Jeannette</desc>
<link href="https://chemins.be/lessines/chemin/46"/><trkseg>
<trkpt lat="50.710450" lon="3.831791"><time>2026-05-02T18:42:09Z</time></trkpt>
<trkpt lat="50.710126" lon="3.831724"><time>2026-05-02T18:52:09Z</time></trkpt>
</trkseg>
</trk>
<trk>
<name>hlsls54</name>
<cmt>v</cmt>
<desc>Lessines Sentier n°54 </desc>
<link href="https://chemins.be/lessines/sentier/54"/><trkseg>
<trkpt lat="50.713787" lon="3.829744"><time>2026-05-02T18:32:09Z</time></trkpt>
<trkpt lat="50.713853" lon="3.831468"><time>2026-05-02T18:42:09Z</time></trkpt>
</trkseg></trk>
<trk>
<name>hlsls54</name>
<cmt>q</cmt>
<desc>Lessines Sentier n°54 </desc>
<link href="https://chemins.be/lessines/sentier/54"/><trkseg>
<trkpt lat="50.713853" lon="3.831468"><time>2026-05-02T18:42:09Z</time></trkpt>
<trkpt lat="50.714767" lon="3.831616"><time>2026-05-02T18:52:09Z</time></trkpt>
<trkpt lat="50.715996" lon="3.831816"><time>2026-05-02T19:02:09Z</time></trkpt>
<trkpt lat="50.717473" lon="3.831709"><time>2026-05-02T19:12:09Z</time></trkpt>
<trkpt lat="50.718614" lon="3.832532"><time>2026-05-02T19:22:09Z</time></trkpt>
<trkpt lat="50.719484" lon="3.832769"><time>2026-05-02T19:32:09Z</time></trkpt>
<trkpt lat="50.720593" lon="3.832853"><time>2026-05-02T19:42:09Z</time></trkpt>
<trkpt lat="50.720926" lon="3.833560"><time>2026-05-02T19:52:09Z</time></trkpt>
<trkpt lat="50.723314" lon="3.836887"><time>2026-05-02T20:02:09Z</time></trkpt>
<trkpt lat="50.724030" lon="3.838690"><time>2026-05-02T20:12:09Z</time></trkpt>
<trkpt lat="50.724704" lon="3.838654"><time>2026-05-02T20:22:09Z</time></trkpt>
</trkseg>
</trk>
<trk>
<name>hlsls55</name>
<cmt>q</cmt>
<desc>Lessines Sentier n°55 </desc>
<link href="https://chemins.be/lessines/sentier/55"/><trkseg>
<trkpt lat="50.721006" lon="3.831722"><time>2026-05-02T18:32:09Z</time></trkpt>
<trkpt lat="50.720908" lon="3.833570"><time>2026-05-02T18:42:09Z</time></trkpt>
</trkseg>
</trk>
<trk>
<name>hlsls56</name>
<cmt>s</cmt>
<desc>Lessines Sentier n°56 </desc>
<link href="https://chemins.be/lessines/sentier/56"/><trkseg>
<trkpt lat="50.718152" lon="3.832675"><time>2026-05-02T18:32:09Z</time></trkpt>
<trkpt lat="50.719339" lon="3.834727"><time>2026-05-02T18:42:09Z</time></trkpt>
<trkpt lat="50.721105" lon="3.836287"><time>2026-05-02T18:52:09Z</time></trkpt>
<trkpt lat="50.721802" lon="3.837803"><time>2026-05-02T19:02:09Z</time></trkpt>
<trkpt lat="50.723269" lon="3.839291"><time>2026-05-02T19:12:09Z</time></trkpt>
<trkpt lat="50.723695" lon="3.840349"><time>2026-05-02T19:22:09Z</time></trkpt>
</trkseg>
</trk>
<trk>
<name>hlsls57</name>
<cmt>q</cmt>
<desc>Lessines Sentier n°57 </desc>
<link href="https://chemins.be/lessines/sentier/57"/><trkseg>
<trkpt lat="50.716973" lon="3.840387"><time>2026-05-02T18:32:09Z</time></trkpt>
<trkpt lat="50.716614" lon="3.839947"><time>2026-05-02T18:42:09Z</time></trkpt>
<trkpt lat="50.716642" lon="3.839107"><time>2026-05-02T18:52:09Z</time></trkpt>
</trkseg></trk>
<trk>
<name>hlsls57</name>
<cmt>s</cmt>
<desc>Lessines Sentier n°57 </desc>
<link href="https://chemins.be/lessines/sentier/57"/><trkseg>
<trkpt lat="50.716642" lon="3.839107"><time>2026-05-02T18:52:09Z</time></trkpt>
<trkpt lat="50.716675" lon="3.838080"><time>2026-05-02T19:02:09Z</time></trkpt>
<trkpt lat="50.715461" lon="3.837022"><time>2026-05-02T19:12:09Z</time></trkpt>
</trkseg>
</trk>
<trk>
<name>hlsls58</name>
<cmt>r</cmt>
<desc>Lessines Sentier n°58 Sentier du Fourbesart</desc>
<link href="https://chemins.be/lessines/sentier/58"/><trkseg>
<trkpt lat="50.716755" lon="3.848959"><time>2026-05-02T18:32:09Z</time></trkpt>
<trkpt lat="50.714717" lon="3.843609"><time>2026-05-02T18:42:09Z</time></trkpt>
<trkpt lat="50.713775" lon="3.841606"><time>2026-05-02T18:52:09Z</time></trkpt>
<trkpt lat="50.713536" lon="3.840470"><time>2026-05-02T19:02:09Z</time></trkpt>
</trkseg></trk>
<trk>
<name>hlsls58</name>
<cmt>v</cmt>
<desc>Lessines Sentier n°58 Sentier du Fourbesart</desc>
<link href="https://chemins.be/lessines/sentier/58"/><trkseg>
<trkpt lat="50.713536" lon="3.840470"><time>2026-05-02T19:02:09Z</time></trkpt>
<trkpt lat="50.712847" lon="3.838971"><time>2026-05-02T19:12:09Z</time></trkpt>
</trkseg>
</trk>
<trk>
<name>hlsls59</name>
<cmt>r</cmt>
<desc>Lessines Sentier n°59 </desc>
<link href="https://chemins.be/lessines/sentier/59"/><trkseg>
<trkpt lat="50.714446" lon="3.829637"><time>2026-05-02T18:32:09Z</time></trkpt>
<trkpt lat="50.714763" lon="3.831428"><time>2026-05-02T18:42:09Z</time></trkpt>
<trkpt lat="50.714768" lon="3.831611"><time>2026-05-02T18:52:09Z</time></trkpt>
</trkseg>
</trk>
<trk>
<name>hlsls60</name>
<cmt>v</cmt>
<desc>Lessines Sentier n°60 </desc>
<link href="https://chemins.be/lessines/sentier/60"/><trkseg>
<trkpt lat="50.714605" lon="3.828374"><time>2026-05-02T18:32:09Z</time></trkpt>
<trkpt lat="50.714088" lon="3.827261"><time>2026-05-02T18:42:09Z</time></trkpt>
<trkpt lat="50.714121" lon="3.826553"><time>2026-05-02T18:52:09Z</time></trkpt>
<trkpt lat="50.714227" lon="3.826311"><time>2026-05-02T19:02:09Z</time></trkpt>
</trkseg>
</trk>
<trk>
<name>hlsls61</name>
<cmt>v</cmt>
<desc>Lessines Sentier n°61 </desc>
<link href="https://chemins.be/lessines/sentier/61"/><trkseg>
<trkpt lat="50.716663" lon="3.828128"><time>2026-05-02T18:32:09Z</time></trkpt>
<trkpt lat="50.716263" lon="3.827128"><time>2026-05-02T18:42:09Z</time></trkpt>
<trkpt lat="50.716133" lon="3.826888"><time>2026-05-02T18:52:09Z</time></trkpt>
<trkpt lat="50.715835" lon="3.826813"><time>2026-05-02T19:02:09Z</time></trkpt>
<trkpt lat="50.714863" lon="3.826330"><time>2026-05-02T19:12:09Z</time></trkpt>
<trkpt lat="50.714455" lon="3.825612"><time>2026-05-02T19:22:09Z</time></trkpt>
<trkpt lat="50.714061" lon="3.825107"><time>2026-05-02T19:32:09Z</time></trkpt>
</trkseg>
</trk>
<trk>
<name>hlsls62</name>
<cmt>d</cmt>
<desc>Lessines Sentier n°62 </desc>
<link href="https://chemins.be/lessines/sentier/62"/><trkseg>
<trkpt lat="50.716233" lon="3.827153"><time>2026-05-02T18:32:09Z</time></trkpt>
<trkpt lat="50.719324" lon="3.824707"><time>2026-05-02T18:42:09Z</time></trkpt>
</trkseg>
</trk>
<trk>
<name>hlsls63</name>
<cmt>v</cmt>
<desc>Lessines Sentier n°63 </desc>
<link href="https://chemins.be/lessines/sentier/63"/><trkseg>
<trkpt lat="50.717917" lon="3.819415"><time>2026-05-02T18:32:09Z</time></trkpt>
<trkpt lat="50.716731" lon="3.819599"><time>2026-05-02T18:42:09Z</time></trkpt>
<trkpt lat="50.715992" lon="3.819239"><time>2026-05-02T18:52:09Z</time></trkpt>
<trkpt lat="50.715741" lon="3.819256"><time>2026-05-02T19:02:09Z</time></trkpt>
</trkseg>
</trk>
<trk>
<name>hlsls64</name>
<cmt>v</cmt>
<desc>Lessines Sentier n°64 Sentier Branquart / Profond Chemin</desc>
<link href="https://chemins.be/lessines/sentier/64"/><trkseg>
<trkpt lat="50.713523" lon="3.818657"><time>2026-05-02T18:32:09Z</time></trkpt>
<trkpt lat="50.714483" lon="3.819717"><time>2026-05-02T18:42:09Z</time></trkpt>
<trkpt lat="50.714687" lon="3.819950"><time>2026-05-02T18:52:09Z</time></trkpt>
<trkpt lat="50.714749" lon="3.819856"><time>2026-05-02T19:02:09Z</time></trkpt>
<trkpt lat="50.714763" lon="3.819867"><time>2026-05-02T19:12:09Z</time></trkpt>
<trkpt lat="50.714753" lon="3.819857"><time>2026-05-02T19:22:09Z</time></trkpt>
<trkpt lat="50.715043" lon="3.820247"><time>2026-05-02T19:32:09Z</time></trkpt>
</trkseg>
</trk>
<trk>
<name>hlsls64bis</name>
<cmt>r</cmt>
<desc>Lessines Sentier n°64bis Sentier de la Lapinière</desc>
<link href="https://chemins.be/lessines/sentier/64bis"/><trkseg>
<trkpt lat="50.714533" lon="3.823537"><time>2026-05-02T18:32:09Z</time></trkpt>
<trkpt lat="50.714498" lon="3.823533"><time>2026-05-02T18:42:09Z</time></trkpt>
<trkpt lat="50.714198" lon="3.822970"><time>2026-05-02T18:52:09Z</time></trkpt>
</trkseg></trk>
<trk>
<name>hlsls64bis</name>
<cmt>v</cmt>
<desc>Lessines Sentier n°64bis Sentier de la Lapinière</desc>
<link href="https://chemins.be/lessines/sentier/64bis"/><trkseg>
<trkpt lat="50.714198" lon="3.822970"><time>2026-05-02T18:52:09Z</time></trkpt>
<trkpt lat="50.713600" lon="3.821851"><time>2026-05-02T19:02:09Z</time></trkpt>
</trkseg>
</trk>
<trk>
<name>hlsls65</name>
<cmt>q</cmt>
<desc>Lessines Sentier n°65 </desc>
<link href="https://chemins.be/lessines/sentier/65"/><trkseg>
<trkpt lat="50.717267" lon="3.815434"><time>2026-05-02T18:32:09Z</time></trkpt>
<trkpt lat="50.717804" lon="3.813659"><time>2026-05-02T18:42:09Z</time></trkpt>
<trkpt lat="50.718426" lon="3.812500"><time>2026-05-02T18:52:09Z</time></trkpt>
</trkseg>
</trk>
<trk>
<name>hlsls65bis</name>
<cmt>q</cmt>
<desc>Lessines Sentier n°65bis </desc>
<link href="https://chemins.be/lessines/sentier/65bis"/><trkseg>
<trkpt lat="50.717757" lon="3.813736"><time>2026-05-02T18:32:09Z</time></trkpt>
<trkpt lat="50.717870" lon="3.811596"><time>2026-05-02T18:42:09Z</time></trkpt>
</trkseg>
</trk>
<trk>
<name>hlsls66</name>
<cmt>q</cmt>
<desc>Lessines Sentier n°66 </desc>
<link href="https://chemins.be/lessines/sentier/66"/><trkseg>
<trkpt lat="50.713782" lon="3.809919"><time>2026-05-02T18:32:09Z</time></trkpt>
<trkpt lat="50.714010" lon="3.810625"><time>2026-05-02T18:42:09Z</time></trkpt>
<trkpt lat="50.714715" lon="3.811522"><time>2026-05-02T18:52:09Z</time></trkpt>
<trkpt lat="50.715096" lon="3.812084"><time>2026-05-02T19:02:09Z</time></trkpt>
<trkpt lat="50.715858" lon="3.813605"><time>2026-05-02T19:12:09Z</time></trkpt>
<trkpt lat="50.716475" lon="3.814815"><time>2026-05-02T19:22:09Z</time></trkpt>
<trkpt lat="50.717223" lon="3.815231"><time>2026-05-02T19:32:09Z</time></trkpt>
</trkseg>
</trk>
<trk>
<name>hlsls67</name>
<cmt>q</cmt>
<desc>Lessines Sentier n°67 Boulevard Emile Schevenels / Sentier de la Planquette</desc>
<link href="https://chemins.be/lessines/sentier/67"/><trkseg>
<trkpt lat="50.706467" lon="3.820058"><time>2026-05-02T18:32:09Z</time></trkpt>
<trkpt lat="50.707858" lon="3.821401"><time>2026-05-02T18:42:09Z</time></trkpt>
<trkpt lat="50.709011" lon="3.823978"><time>2026-05-02T18:52:09Z</time></trkpt>
</trkseg></trk>
<trk>
<name>hlsls67</name>
<cmt>r</cmt>
<desc>Lessines Sentier n°67 Boulevard Emile Schevenels / Sentier de la Planquette</desc>
<link href="https://chemins.be/lessines/sentier/67"/><trkseg>
<trkpt lat="50.709011" lon="3.823978"><time>2026-05-02T18:52:09Z</time></trkpt>
<trkpt lat="50.710209" lon="3.824488"><time>2026-05-02T19:02:09Z</time></trkpt>
</trkseg></trk>
<trk>
<name>hlsls67</name>
<cmt>v</cmt>
<desc>Lessines Sentier n°67 Boulevard Emile Schevenels / Sentier de la Planquette</desc>
<link href="https://chemins.be/lessines/sentier/67"/><trkseg>
<trkpt lat="50.710209" lon="3.824488"><time>2026-05-02T19:02:09Z</time></trkpt>
<trkpt lat="50.710149" lon="3.824942"><time>2026-05-02T19:12:09Z</time></trkpt>
<trkpt lat="50.710186" lon="3.825310"><time>2026-05-02T19:22:09Z</time></trkpt>
<trkpt lat="50.710434" lon="3.826411"><time>2026-05-02T19:32:09Z</time></trkpt>
<trkpt lat="50.710518" lon="3.826991"><time>2026-05-02T19:42:09Z</time></trkpt>
</trkseg>
</trk>
<trk>
<name>hlsls68</name>
<cmt>q</cmt>
<desc>Lessines Sentier n°68 </desc>
<link href="https://chemins.be/lessines/sentier/68"/><trkseg>
<trkpt lat="50.713951" lon="3.815771"><time>2026-05-02T18:32:09Z</time></trkpt>
<trkpt lat="50.713455" lon="3.815986"><time>2026-05-02T18:42:09Z</time></trkpt>
<trkpt lat="50.713402" lon="3.816169"><time>2026-05-02T18:52:09Z</time></trkpt>
<trkpt lat="50.711703" lon="3.815049"><time>2026-05-02T19:02:09Z</time></trkpt>
<trkpt lat="50.709137" lon="3.811235"><time>2026-05-02T19:12:09Z</time></trkpt>
<trkpt lat="50.708231" lon="3.808946"><time>2026-05-02T19:22:09Z</time></trkpt>
<trkpt lat="50.707717" lon="3.809439"><time>2026-05-02T19:32:09Z</time></trkpt>
<trkpt lat="50.706655" lon="3.808223"><time>2026-05-02T19:42:09Z</time></trkpt>
<trkpt lat="50.706031" lon="3.806379"><time>2026-05-02T19:52:09Z</time></trkpt>
<trkpt lat="50.704375" lon="3.804718"><time>2026-05-02T20:02:09Z</time></trkpt>
</trkseg>
</trk>
<trk>
<name>hlsls69</name>
<cmt>q</cmt>
<desc>Lessines Sentier n°69 </desc>
<link href="https://chemins.be/lessines/sentier/69"/><trkseg>
<trkpt lat="50.713253" lon="3.813527"><time>2026-05-02T18:32:09Z</time></trkpt>
<trkpt lat="50.712883" lon="3.811847"><time>2026-05-02T18:42:09Z</time></trkpt>
<trkpt lat="50.712973" lon="3.811417"><time>2026-05-02T18:52:09Z</time></trkpt>
<trkpt lat="50.712903" lon="3.809357"><time>2026-05-02T19:02:09Z</time></trkpt>
<trkpt lat="50.712963" lon="3.806677"><time>2026-05-02T19:12:09Z</time></trkpt>
<trkpt lat="50.713500" lon="3.805427"><time>2026-05-02T19:22:09Z</time></trkpt>
<trkpt lat="50.714242" lon="3.803700"><time>2026-05-02T19:32:09Z</time></trkpt>
<trkpt lat="50.714622" lon="3.801425"><time>2026-05-02T19:42:09Z</time></trkpt>
<trkpt lat="50.713807" lon="3.797820"><time>2026-05-02T19:52:09Z</time></trkpt>
</trkseg>
</trk>
<trk>
<name>hlsls7</name>
<cmt>s</cmt>
<desc>Lessines Chemin n°7 Chemin de Mons à Gand</desc>
<link href="https://chemins.be/lessines/chemin/7"/><trkseg>
<trkpt lat="50.703264" lon="3.844629"><time>2026-05-02T18:32:09Z</time></trkpt>
<trkpt lat="50.703797" lon="3.846140"><time>2026-05-02T18:42:09Z</time></trkpt>
<trkpt lat="50.703753" lon="3.847307"><time>2026-05-02T18:52:09Z</time></trkpt>
<trkpt lat="50.703416" lon="3.848594"><time>2026-05-02T19:02:09Z</time></trkpt>
<trkpt lat="50.703937" lon="3.849212"><time>2026-05-02T19:12:09Z</time></trkpt>
</trkseg></trk>
<trk>
<name>hlsls7</name>
<cmt>b</cmt>
<desc>Lessines Chemin n°7 Chemin de Mons à Gand</desc>
<link href="https://chemins.be/lessines/chemin/7"/><trkseg>
<trkpt lat="50.703937" lon="3.849212"><time>2026-05-02T19:12:09Z</time></trkpt>
<trkpt lat="50.704285" lon="3.849708"><time>2026-05-02T19:22:09Z</time></trkpt>
<trkpt lat="50.706699" lon="3.849506"><time>2026-05-02T19:32:09Z</time></trkpt>
</trkseg></trk>
<trk>
<name>hlsls7</name>
<cmt>r</cmt>
<desc>Lessines Chemin n°7 Chemin de Mons à Gand</desc>
<link href="https://chemins.be/lessines/chemin/7"/><trkseg>
<trkpt lat="50.706699" lon="3.849506"><time>2026-05-02T19:32:09Z</time></trkpt>
<trkpt lat="50.708656" lon="3.850002"><time>2026-05-02T19:42:09Z</time></trkpt>
<trkpt lat="50.709124" lon="3.850672"><time>2026-05-02T19:52:09Z</time></trkpt>
<trkpt lat="50.713124" lon="3.851015"><time>2026-05-02T20:02:09Z</time></trkpt>
</trkseg>
</trk>
<trk>
<name>hlsls70</name>
<cmt>q</cmt>
<desc>Lessines Sentier n°70 </desc>
<link href="https://chemins.be/lessines/sentier/70"/><trkseg>
<trkpt lat="50.714554" lon="3.808097"><time>2026-05-02T18:32:09Z</time></trkpt>
<trkpt lat="50.715162" lon="3.808521"><time>2026-05-02T18:42:09Z</time></trkpt>
<trkpt lat="50.716403" lon="3.810995"><time>2026-05-02T18:52:09Z</time></trkpt>
<trkpt lat="50.717734" lon="3.813742"><time>2026-05-02T19:02:09Z</time></trkpt>
</trkseg>
</trk>
<trk>
<name>hlsls71</name>
<cmt>q</cmt>
<desc>Lessines Sentier n°71 </desc>
<link href="https://chemins.be/lessines/sentier/71"/><trkseg>
<trkpt lat="50.718644" lon="3.803397"><time>2026-05-02T18:32:09Z</time></trkpt>
<trkpt lat="50.717412" lon="3.803082"><time>2026-05-02T18:42:09Z</time></trkpt>
<trkpt lat="50.716178" lon="3.802549"><time>2026-05-02T18:52:09Z</time></trkpt>
<trkpt lat="50.714536" lon="3.801786"><time>2026-05-02T19:02:09Z</time></trkpt>
</trkseg>
</trk>
<trk>
<name>hlsls73</name>
<cmt>v</cmt>
<desc>Lessines Sentier n°73 </desc>
<link href="https://chemins.be/lessines/sentier/73"/><trkseg>
<trkpt lat="50.705900" lon="3.821876"><time>2026-05-02T18:32:09Z</time></trkpt>
<trkpt lat="50.706951" lon="3.821624"><time>2026-05-02T18:42:09Z</time></trkpt>
<trkpt lat="50.707849" lon="3.821401"><time>2026-05-02T18:52:09Z</time></trkpt>
</trkseg>
</trk>
<trk>
<name>hlsls75</name>
<cmt>v</cmt>
<desc>Lessines Sentier n°75 </desc>
<link href="https://chemins.be/lessines/sentier/75"/><trkseg>
<trkpt lat="50.710253" lon="3.824261"><time>2026-05-02T18:32:09Z</time></trkpt>
<trkpt lat="50.710282" lon="3.822732"><time>2026-05-02T18:42:09Z</time></trkpt>
<trkpt lat="50.710350" lon="3.821839"><time>2026-05-02T18:52:09Z</time></trkpt>
<trkpt lat="50.710321" lon="3.821443"><time>2026-05-02T19:02:09Z</time></trkpt>
<trkpt lat="50.710168" lon="3.819590"><time>2026-05-02T19:12:09Z</time></trkpt>
<trkpt lat="50.710566" lon="3.818198"><time>2026-05-02T19:22:09Z</time></trkpt>
</trkseg>
</trk>
<trk>
<name>hlsls76</name>
<cmt>v</cmt>
<desc>Lessines Sentier n°76 </desc>
<link href="https://chemins.be/lessines/sentier/76"/><trkseg>
<trkpt lat="50.710450" lon="3.831820"><time>2026-05-02T18:32:09Z</time></trkpt>
<trkpt lat="50.710514" lon="3.832145"><time>2026-05-02T18:42:09Z</time></trkpt>
</trkseg></trk>
<trk>
<name>hlsls76</name>
<cmt>q</cmt>
<desc>Lessines Sentier n°76 </desc>
<link href="https://chemins.be/lessines/sentier/76"/><trkseg>
<trkpt lat="50.710514" lon="3.832145"><time>2026-05-02T18:42:09Z</time></trkpt>
<trkpt lat="50.710606" lon="3.832469"><time>2026-05-02T18:52:09Z</time></trkpt>
</trkseg>
</trk>
<trk>
<name>hlsls77</name>
<cmt>r</cmt>
<desc>Lessines Sentier n°77 Rue Tramasure</desc>
<link href="https://chemins.be/lessines/sentier/77"/><trkseg>
<trkpt lat="50.709113" lon="3.829148"><time>2026-05-02T18:32:09Z</time></trkpt>
<trkpt lat="50.708223" lon="3.829968"><time>2026-05-02T18:42:09Z</time></trkpt>
<trkpt lat="50.708213" lon="3.829958"><time>2026-05-02T18:52:09Z</time></trkpt>
<trkpt lat="50.708183" lon="3.829938"><time>2026-05-02T19:02:09Z</time></trkpt>
</trkseg></trk>
<trk>
<name>hlsls77</name>
<cmt>v</cmt>
<desc>Lessines Sentier n°77 Rue Tramasure</desc>
<link href="https://chemins.be/lessines/sentier/77"/><trkseg>
<trkpt lat="50.708183" lon="3.829938"><time>2026-05-02T19:02:09Z</time></trkpt>
<trkpt lat="50.708183" lon="3.829948"><time>2026-05-02T19:12:09Z</time></trkpt>
<trkpt lat="50.708013" lon="3.830028"><time>2026-05-02T19:22:09Z</time></trkpt>
<trkpt lat="50.706993" lon="3.830308"><time>2026-05-02T19:32:09Z</time></trkpt>
<trkpt lat="50.706313" lon="3.831138"><time>2026-05-02T19:42:09Z</time></trkpt>
<trkpt lat="50.705993" lon="3.831518"><time>2026-05-02T19:52:09Z</time></trkpt>
<trkpt lat="50.705443" lon="3.832088"><time>2026-05-02T20:02:09Z</time></trkpt>
<trkpt lat="50.705084" lon="3.832793"><time>2026-05-02T20:12:09Z</time></trkpt>
</trkseg>
</trk>
<trk>
<name>hlsls79</name>
<cmt>v</cmt>
<desc>Lessines Sentier n°79 RAVeL / RAVeL 4</desc>
<link href="https://chemins.be/lessines/sentier/79"/><trkseg>
<trkpt lat="50.706636" lon="3.833236"><time>2026-05-02T18:32:09Z</time></trkpt>
<trkpt lat="50.706698" lon="3.833947"><time>2026-05-02T18:42:09Z</time></trkpt>
<trkpt lat="50.705238" lon="3.834749"><time>2026-05-02T18:52:09Z</time></trkpt>
<trkpt lat="50.705006" lon="3.835393"><time>2026-05-02T19:02:09Z</time></trkpt>
</trkseg></trk>
<trk>
<name>hlsls79</name>
<cmt>q</cmt>
<desc>Lessines Sentier n°79 RAVeL / RAVeL 4</desc>
<link href="https://chemins.be/lessines/sentier/79"/><trkseg>
<trkpt lat="50.705006" lon="3.835393"><time>2026-05-02T19:02:09Z</time></trkpt>
<trkpt lat="50.704483" lon="3.836616"><time>2026-05-02T19:12:09Z</time></trkpt>
<trkpt lat="50.703715" lon="3.837302"><time>2026-05-02T19:22:09Z</time></trkpt>
<trkpt lat="50.702588" lon="3.837817"><time>2026-05-02T19:32:09Z</time></trkpt>
</trkseg>
</trk>
<trk>
<name>hlsls8</name>
<cmt>v</cmt>
<desc>Lessines Chemin n°8 Chemin d'Esquimbreucq</desc>
<link href="https://chemins.be/lessines/chemin/8"/><trkseg>
<trkpt lat="50.722234" lon="3.827437"><time>2026-05-02T18:32:09Z</time></trkpt>
<trkpt lat="50.722188" lon="3.829137"><time>2026-05-02T18:42:09Z</time></trkpt>
<trkpt lat="50.722262" lon="3.829660"><time>2026-05-02T18:52:09Z</time></trkpt>
</trkseg></trk>
<trk>
<name>hlsls8</name>
<cmt>d</cmt>
<desc>Lessines Chemin n°8 Chemin d'Esquimbreucq</desc>
<link href="https://chemins.be/lessines/chemin/8"/><trkseg>
<trkpt lat="50.722262" lon="3.829660"><time>2026-05-02T18:52:09Z</time></trkpt>
<trkpt lat="50.723763" lon="3.833594"><time>2026-05-02T19:02:09Z</time></trkpt>
</trkseg></trk>
<trk>
<name>hlsls8</name>
<cmt>v</cmt>
<desc>Lessines Chemin n°8 Chemin d'Esquimbreucq</desc>
<link href="https://chemins.be/lessines/chemin/8"/><trkseg>
<trkpt lat="50.723763" lon="3.833594"><time>2026-05-02T19:02:09Z</time></trkpt>
<trkpt lat="50.724347" lon="3.835429"><time>2026-05-02T19:12:09Z</time></trkpt>
</trkseg></trk>
<trk>
<name>hlsls8</name>
<cmt>r</cmt>
<desc>Lessines Chemin n°8 Chemin d'Esquimbreucq</desc>
<link href="https://chemins.be/lessines/chemin/8"/><trkseg>
<trkpt lat="50.724347" lon="3.835429"><time>2026-05-02T19:12:09Z</time></trkpt>
<trkpt lat="50.724956" lon="3.836938"><time>2026-05-02T19:22:09Z</time></trkpt>
</trkseg>
</trk>
<trk>
<name>hlsls80</name>
<cmt>q</cmt>
<desc>Lessines Sentier n°80 </desc>
<link href="https://chemins.be/lessines/sentier/80"/><trkseg>
<trkpt lat="50.699259" lon="3.834625"><time>2026-05-02T18:32:09Z</time></trkpt>
<trkpt lat="50.700917" lon="3.833595"><time>2026-05-02T18:42:09Z</time></trkpt>
<trkpt lat="50.700899" lon="3.832995"><time>2026-05-02T18:52:09Z</time></trkpt>
</trkseg></trk>
<trk>
<name>hlsls80</name>
<cmt>v</cmt>
<desc>Lessines Sentier n°80 </desc>
<link href="https://chemins.be/lessines/sentier/80"/><trkseg>
<trkpt lat="50.700899" lon="3.832995"><time>2026-05-02T18:52:09Z</time></trkpt>
<trkpt lat="50.702075" lon="3.832595"><time>2026-05-02T19:02:09Z</time></trkpt>
<trkpt lat="50.702460" lon="3.832335"><time>2026-05-02T19:12:09Z</time></trkpt>
</trkseg></trk>
<trk>
<name>hlsls80</name>
<cmt>q</cmt>
<desc>Lessines Sentier n°80 </desc>
<link href="https://chemins.be/lessines/sentier/80"/><trkseg>
<trkpt lat="50.702460" lon="3.832335"><time>2026-05-02T19:12:09Z</time></trkpt>
<trkpt lat="50.702433" lon="3.832222"><time>2026-05-02T19:22:09Z</time></trkpt>
<trkpt lat="50.703400" lon="3.831461"><time>2026-05-02T19:32:09Z</time></trkpt>
<trkpt lat="50.704806" lon="3.830256"><time>2026-05-02T19:42:09Z</time></trkpt>
</trkseg>
</trk>
<trk>
<name>hlsls81</name>
<cmt>v</cmt>
<desc>Lessines Sentier n°81 Chemin du Persin / Chemin des Croix</desc>
<link href="https://chemins.be/lessines/sentier/81"/><trkseg>
<trkpt lat="50.700470" lon="3.831608"><time>2026-05-02T18:32:09Z</time></trkpt>
<trkpt lat="50.700874" lon="3.831405"><time>2026-05-02T18:42:09Z</time></trkpt>
<trkpt lat="50.701196" lon="3.831062"><time>2026-05-02T18:52:09Z</time></trkpt>
<trkpt lat="50.701858" lon="3.830374"><time>2026-05-02T19:02:09Z</time></trkpt>
<trkpt lat="50.701820" lon="3.830007"><time>2026-05-02T19:12:09Z</time></trkpt>
<trkpt lat="50.702671" lon="3.829219"><time>2026-05-02T19:22:09Z</time></trkpt>
</trkseg></trk>
<trk>
<name>hlsls81</name>
<cmt>q</cmt>
<desc>Lessines Sentier n°81 Chemin du Persin / Chemin des Croix</desc>
<link href="https://chemins.be/lessines/sentier/81"/><trkseg>
<trkpt lat="50.702671" lon="3.829219"><time>2026-05-02T19:22:09Z</time></trkpt>
<trkpt lat="50.704874" lon="3.829335"><time>2026-05-02T19:32:09Z</time></trkpt>
</trkseg>
</trk>
<trk>
<name>hlsls83</name>
<cmt>v</cmt>
<desc>Lessines Sentier n°83 Paradis des Chevaux / Rue Latérale</desc>
<link href="https://chemins.be/lessines/sentier/83"/><trkseg>
<trkpt lat="50.710154" lon="3.838764"><time>2026-05-02T18:32:09Z</time></trkpt>
<trkpt lat="50.710768" lon="3.838914"><time>2026-05-02T18:42:09Z</time></trkpt>
</trkseg></trk>
<trk>
<name>hlsls83</name>
<cmt>r</cmt>
<desc>Lessines Sentier n°83 Paradis des Chevaux / Rue Latérale</desc>
<link href="https://chemins.be/lessines/sentier/83"/><trkseg>
<trkpt lat="50.710768" lon="3.838914"><time>2026-05-02T18:42:09Z</time></trkpt>
<trkpt lat="50.711352" lon="3.838992"><time>2026-05-02T18:52:09Z</time></trkpt>
<trkpt lat="50.711746" lon="3.838936"><time>2026-05-02T19:02:09Z</time></trkpt>
</trkseg></trk>
<trk>
<name>hlsls83</name>
<cmt>v</cmt>
<desc>Lessines Sentier n°83 Paradis des Chevaux / Rue Latérale</desc>
<link href="https://chemins.be/lessines/sentier/83"/><trkseg>
<trkpt lat="50.711746" lon="3.838936"><time>2026-05-02T19:02:09Z</time></trkpt>
<trkpt lat="50.712067" lon="3.838747"><time>2026-05-02T19:12:09Z</time></trkpt>
</trkseg></trk>
<trk>
<name>hlsls83</name>
<cmt>r</cmt>
<desc>Lessines Sentier n°83 Paradis des Chevaux / Rue Latérale</desc>
<link href="https://chemins.be/lessines/sentier/83"/><trkseg>
<trkpt lat="50.712067" lon="3.838747"><time>2026-05-02T19:12:09Z</time></trkpt>
<trkpt lat="50.712477" lon="3.838185"><time>2026-05-02T19:22:09Z</time></trkpt>
</trkseg></trk>
<trk>
<name>hlsls83</name>
<cmt>v</cmt>
<desc>Lessines Sentier n°83 Paradis des Chevaux / Rue Latérale</desc>
<link href="https://chemins.be/lessines/sentier/83"/><trkseg>
<trkpt lat="50.712477" lon="3.838185"><time>2026-05-02T19:22:09Z</time></trkpt>
<trkpt lat="50.713004" lon="3.837661"><time>2026-05-02T19:32:09Z</time></trkpt>
</trkseg></trk>
<trk>
<name>hlsls83</name>
<cmt>r</cmt>
<desc>Lessines Sentier n°83 Paradis des Chevaux / Rue Latérale</desc>
<link href="https://chemins.be/lessines/sentier/83"/><trkseg>
<trkpt lat="50.713004" lon="3.837661"><time>2026-05-02T19:32:09Z</time></trkpt>
<trkpt lat="50.715569" lon="3.838472"><time>2026-05-02T19:42:09Z</time></trkpt>
</trkseg>
</trk>
<trk>
<name>hlsls84</name>
<cmt>s</cmt>
<desc>Lessines Sentier n°84 </desc>
<link href="https://chemins.be/lessines/sentier/84"/><trkseg>
<trkpt lat="50.713129" lon="3.836005"><time>2026-05-02T18:32:09Z</time></trkpt>
<trkpt lat="50.713442" lon="3.837498"><time>2026-05-02T18:42:09Z</time></trkpt>
</trkseg>
</trk>
<trk>
<name>hlsls85</name>
<cmt>s</cmt>
<desc>Lessines Sentier n°85 </desc>
<link href="https://chemins.be/lessines/sentier/85"/><trkseg>
<trkpt lat="50.709221" lon="3.841335"><time>2026-05-02T18:32:09Z</time></trkpt>
<trkpt lat="50.711336" lon="3.843361"><time>2026-05-02T18:42:09Z</time></trkpt>
<trkpt lat="50.712202" lon="3.850633"><time>2026-05-02T18:52:09Z</time></trkpt>
</trkseg>
</trk>
<trk>
<name>hlsls86</name>
<cmt>r</cmt>
<desc>Lessines Sentier n°86 Paradis des Chevaux</desc>
<link href="https://chemins.be/lessines/sentier/86"/><trkseg>
<trkpt lat="50.712050" lon="3.838743"><time>2026-05-02T18:32:09Z</time></trkpt>
<trkpt lat="50.712181" lon="3.839687"><time>2026-05-02T18:42:09Z</time></trkpt>
</trkseg></trk>
<trk>
<name>hlsls86</name>
<cmt>q</cmt>
<desc>Lessines Sentier n°86 Paradis des Chevaux</desc>
<link href="https://chemins.be/lessines/sentier/86"/><trkseg>
<trkpt lat="50.712181" lon="3.839687"><time>2026-05-02T18:42:09Z</time></trkpt>
<trkpt lat="50.711749" lon="3.841863"><time>2026-05-02T18:52:09Z</time></trkpt>
<trkpt lat="50.711333" lon="3.843322"><time>2026-05-02T19:02:09Z</time></trkpt>
</trkseg>
</trk>
<trk>
<name>hlsls87</name>
<cmt>q</cmt>
<desc>Lessines Sentier n°87 </desc>
<link href="https://chemins.be/lessines/sentier/87"/><trkseg>
<trkpt lat="50.711754" lon="3.838975"><time>2026-05-02T18:32:09Z</time></trkpt>
<trkpt lat="50.711448" lon="3.840361"><time>2026-05-02T18:42:09Z</time></trkpt>
</trkseg></trk>
<trk>
<name>hlsls87</name>
<cmt>s</cmt>
<desc>Lessines Sentier n°87 </desc>
<link href="https://chemins.be/lessines/sentier/87"/><trkseg>
<trkpt lat="50.711448" lon="3.840361"><time>2026-05-02T18:42:09Z</time></trkpt>
<trkpt lat="50.711205" lon="3.841455"><time>2026-05-02T18:52:09Z</time></trkpt>
<trkpt lat="50.710548" lon="3.842640"><time>2026-05-02T19:02:09Z</time></trkpt>
<trkpt lat="50.710504" lon="3.843661"><time>2026-05-02T19:12:09Z</time></trkpt>
<trkpt lat="50.710096" lon="3.844108"><time>2026-05-02T19:22:09Z</time></trkpt>
<trkpt lat="50.710026" lon="3.844700"><time>2026-05-02T19:32:09Z</time></trkpt>
<trkpt lat="50.708955" lon="3.847112"><time>2026-05-02T19:42:09Z</time></trkpt>
<trkpt lat="50.708906" lon="3.850236"><time>2026-05-02T19:52:09Z</time></trkpt>
</trkseg>
</trk>
<trk>
<name>hlsls88</name>
<cmt>s</cmt>
<desc>Lessines Sentier n°88 </desc>
<link href="https://chemins.be/lessines/sentier/88"/><trkseg>
<trkpt lat="50.708778" lon="3.843052"><time>2026-05-02T18:32:09Z</time></trkpt>
<trkpt lat="50.710015" lon="3.844717"><time>2026-05-02T18:42:09Z</time></trkpt>
</trkseg>
</trk>
<trk>
<name>hlsls89</name>
<cmt>s</cmt>
<desc>Lessines Sentier n°89 </desc>
<link href="https://chemins.be/lessines/sentier/89"/><trkseg>
<trkpt lat="50.709186" lon="3.843580"><time>2026-05-02T18:32:09Z</time></trkpt>
<trkpt lat="50.709099" lon="3.844927"><time>2026-05-02T18:42:09Z</time></trkpt>
<trkpt lat="50.709428" lon="3.846017"><time>2026-05-02T18:52:09Z</time></trkpt>
</trkseg>
</trk>
<trk>
<name>hlsls9</name>
<cmt>r</cmt>
<desc>Lessines Chemin n°9 Chevauchoire de Viane</desc>
<link href="https://chemins.be/lessines/chemin/9"/><trkseg>
<trkpt lat="50.717010" lon="3.840373"><time>2026-05-02T18:32:09Z</time></trkpt>
<trkpt lat="50.717952" lon="3.840222"><time>2026-05-02T18:42:09Z</time></trkpt>
<trkpt lat="50.718627" lon="3.841052"><time>2026-05-02T18:52:09Z</time></trkpt>
<trkpt lat="50.718886" lon="3.842531"><time>2026-05-02T19:02:09Z</time></trkpt>
</trkseg>
</trk>
<trk>
<name>hlsls90</name>
<cmt>v</cmt>
<desc>Lessines Sentier n°90 </desc>
<link href="https://chemins.be/lessines/sentier/90"/><trkseg>
<trkpt lat="50.706917" lon="3.845749"><time>2026-05-02T18:32:09Z</time></trkpt>
<trkpt lat="50.706782" lon="3.845665"><time>2026-05-02T18:42:09Z</time></trkpt>
<trkpt lat="50.706754" lon="3.845538"><time>2026-05-02T18:52:09Z</time></trkpt>
<trkpt lat="50.706411" lon="3.845273"><time>2026-05-02T19:02:09Z</time></trkpt>
</trkseg></trk>
<trk>
<name>hlsls90</name>
<cmt>q</cmt>
<desc>Lessines Sentier n°90 </desc>
<link href="https://chemins.be/lessines/sentier/90"/><trkseg>
<trkpt lat="50.706411" lon="3.845273"><time>2026-05-02T19:02:09Z</time></trkpt>
<trkpt lat="50.705378" lon="3.845355"><time>2026-05-02T19:12:09Z</time></trkpt>
<trkpt lat="50.705171" lon="3.845386"><time>2026-05-02T19:22:09Z</time></trkpt>
<trkpt lat="50.704923" lon="3.844058"><time>2026-05-02T19:32:09Z</time></trkpt>
<trkpt lat="50.704770" lon="3.844173"><time>2026-05-02T19:42:09Z</time></trkpt>
<trkpt lat="50.704626" lon="3.844103"><time>2026-05-02T19:52:09Z</time></trkpt>
<trkpt lat="50.704525" lon="3.843538"><time>2026-05-02T20:02:09Z</time></trkpt>
</trkseg>
</trk>
<trk>
<name>hlsls91</name>
<cmt>q</cmt>
<desc>Lessines Sentier n°91 </desc>
<link href="https://chemins.be/lessines/sentier/91"/><trkseg>
<trkpt lat="50.708787" lon="3.838117"><time>2026-05-02T18:32:09Z</time></trkpt>
<trkpt lat="50.708151" lon="3.838816"><time>2026-05-02T18:42:09Z</time></trkpt>
<trkpt lat="50.707654" lon="3.839196"><time>2026-05-02T18:52:09Z</time></trkpt>
<trkpt lat="50.707384" lon="3.839402"><time>2026-05-02T19:02:09Z</time></trkpt>
<trkpt lat="50.706892" lon="3.839777"><time>2026-05-02T19:12:09Z</time></trkpt>
<trkpt lat="50.706985" lon="3.840237"><time>2026-05-02T19:22:09Z</time></trkpt>
<trkpt lat="50.706167" lon="3.840760"><time>2026-05-02T19:32:09Z</time></trkpt>
<trkpt lat="50.705351" lon="3.841460"><time>2026-05-02T19:42:09Z</time></trkpt>
<trkpt lat="50.705131" lon="3.841404"><time>2026-05-02T19:52:09Z</time></trkpt>
<trkpt lat="50.704520" lon="3.842069"><time>2026-05-02T20:02:09Z</time></trkpt>
</trkseg>
</trk>
<trk>
<name>hlsls92</name>
<cmt>v</cmt>
<desc>Lessines Sentier n°92 Sentier du Bigre</desc>
<link href="https://chemins.be/lessines/sentier/92"/><trkseg>
<trkpt lat="50.708762" lon="3.838125"><time>2026-05-02T18:32:09Z</time></trkpt>
<trkpt lat="50.708817" lon="3.838351"><time>2026-05-02T18:42:09Z</time></trkpt>
<trkpt lat="50.708862" lon="3.838506"><time>2026-05-02T18:52:09Z</time></trkpt>
<trkpt lat="50.708891" lon="3.838931"><time>2026-05-02T19:02:09Z</time></trkpt>
<trkpt lat="50.708891" lon="3.838987"><time>2026-05-02T19:12:09Z</time></trkpt>
<trkpt lat="50.708901" lon="3.839200"><time>2026-05-02T19:22:09Z</time></trkpt>
<trkpt lat="50.709252" lon="3.839323"><time>2026-05-02T19:32:09Z</time></trkpt>
<trkpt lat="50.709289" lon="3.839408"><time>2026-05-02T19:42:09Z</time></trkpt>
<trkpt lat="50.709676" lon="3.839474"><time>2026-05-02T19:52:09Z</time></trkpt>
<trkpt lat="50.709874" lon="3.839684"><time>2026-05-02T20:02:09Z</time></trkpt>
</trkseg>
</trk>
<trk>
<name>hlsls94</name>
<cmt>v</cmt>
<desc>Lessines Sentier n°94 </desc>
<link href="https://chemins.be/lessines/sentier/94"/><trkseg>
<trkpt lat="50.702642" lon="3.838190"><time>2026-05-02T18:32:09Z</time></trkpt>
<trkpt lat="50.701267" lon="3.840872"><time>2026-05-02T18:42:09Z</time></trkpt>
<trkpt lat="50.700094" lon="3.844152"><time>2026-05-02T18:52:09Z</time></trkpt>
<trkpt lat="50.699496" lon="3.844703"><time>2026-05-02T19:02:09Z</time></trkpt>
<trkpt lat="50.698348" lon="3.844848"><time>2026-05-02T19:12:09Z</time></trkpt>
<trkpt lat="50.696418" lon="3.844047"><time>2026-05-02T19:22:09Z</time></trkpt>
</trkseg>
</trk>
<trk>
<name>hlsls95</name>
<cmt>q</cmt>
<desc>Lessines Sentier n°95 Chaussée Gabrielle Richet</desc>
<link href="https://chemins.be/lessines/sentier/95"/><trkseg>
<trkpt lat="50.699657" lon="3.844618"><time>2026-05-02T18:32:09Z</time></trkpt>
<trkpt lat="50.700608" lon="3.845309"><time>2026-05-02T18:42:09Z</time></trkpt>
<trkpt lat="50.700576" lon="3.845699"><time>2026-05-02T18:52:09Z</time></trkpt>
<trkpt lat="50.700714" lon="3.846176"><time>2026-05-02T19:02:09Z</time></trkpt>
<trkpt lat="50.700812" lon="3.846227"><time>2026-05-02T19:12:09Z</time></trkpt>
<trkpt lat="50.700899" lon="3.846712"><time>2026-05-02T19:22:09Z</time></trkpt>
</trkseg></trk>
<trk>
<name>hlsls95</name>
<cmt>r</cmt>
<desc>Lessines Sentier n°95 Chaussée Gabrielle Richet</desc>
<link href="https://chemins.be/lessines/sentier/95"/><trkseg>
<trkpt lat="50.700899" lon="3.846712"><time>2026-05-02T19:22:09Z</time></trkpt>
<trkpt lat="50.701234" lon="3.846476"><time>2026-05-02T19:32:09Z</time></trkpt>
</trkseg></trk>
<trk>
<name>hlsls95</name>
<cmt>q</cmt>
<desc>Lessines Sentier n°95 Chaussée Gabrielle Richet</desc>
<link href="https://chemins.be/lessines/sentier/95"/><trkseg>
<trkpt lat="50.701234" lon="3.846476"><time>2026-05-02T19:32:09Z</time></trkpt>
<trkpt lat="50.701707" lon="3.847141"><time>2026-05-02T19:42:09Z</time></trkpt>
<trkpt lat="50.703413" lon="3.848502"><time>2026-05-02T19:52:09Z</time></trkpt>
</trkseg>
</trk>
<trk>
<name>hlsls96</name>
<cmt>s</cmt>
<desc>Lessines Sentier n°96 </desc>
<link href="https://chemins.be/lessines/sentier/96"/><trkseg>
<trkpt lat="50.697866" lon="3.849488"><time>2026-05-02T18:32:09Z</time></trkpt>
<trkpt lat="50.698048" lon="3.850032"><time>2026-05-02T18:42:09Z</time></trkpt>
</trkseg></trk>
<trk>
<name>hlsls96</name>
<cmt>q</cmt>
<desc>Lessines Sentier n°96 </desc>
<link href="https://chemins.be/lessines/sentier/96"/><trkseg>
<trkpt lat="50.698048" lon="3.850032"><time>2026-05-02T18:42:09Z</time></trkpt>
<trkpt lat="50.698203" lon="3.850492"><time>2026-05-02T18:52:09Z</time></trkpt>
<trkpt lat="50.699094" lon="3.850261"><time>2026-05-02T19:02:09Z</time></trkpt>
<trkpt lat="50.700024" lon="3.850939"><time>2026-05-02T19:12:09Z</time></trkpt>
</trkseg>
</trk>
<trk>
<name>hlsls97</name>
<cmt>q</cmt>
<desc>Lessines Sentier n°97 </desc>
<link href="https://chemins.be/lessines/sentier/97"/><trkseg>
<trkpt lat="50.701451" lon="3.833876"><time>2026-05-02T18:32:09Z</time></trkpt>
<trkpt lat="50.701654" lon="3.835048"><time>2026-05-02T18:42:09Z</time></trkpt>
</trkseg></trk>
<trk>
<name>hlsls97</name>
<cmt>v</cmt>
<desc>Lessines Sentier n°97 </desc>
<link href="https://chemins.be/lessines/sentier/97"/><trkseg>
<trkpt lat="50.701654" lon="3.835048"><time>2026-05-02T18:42:09Z</time></trkpt>
<trkpt lat="50.702091" lon="3.836204"><time>2026-05-02T18:52:09Z</time></trkpt>
<trkpt lat="50.702307" lon="3.836145"><time>2026-05-02T19:02:09Z</time></trkpt>
</trkseg>
</trk>
<trk>
<name>hlsls98</name>
<cmt>v</cmt>
<desc>Lessines Sentier n°98 </desc>
<link href="https://chemins.be/lessines/sentier/98"/><trkseg>
<trkpt lat="50.701014" lon="3.834603"><time>2026-05-02T18:32:09Z</time></trkpt>
<trkpt lat="50.701492" lon="3.834838"><time>2026-05-02T18:42:09Z</time></trkpt>
<trkpt lat="50.701627" lon="3.834992"><time>2026-05-02T18:52:09Z</time></trkpt>
</trkseg>
</trk>
<trk>
<name>hlsls99</name>
<cmt>q</cmt>
<desc>Lessines Sentier n°99 </desc>
<link href="https://chemins.be/lessines/sentier/99"/><trkseg>
<trkpt lat="50.696544" lon="3.836437"><time>2026-05-02T18:32:09Z</time></trkpt>
<trkpt lat="50.694040" lon="3.835083"><time>2026-05-02T18:42:09Z</time></trkpt>
</trkseg></trk>
<trk>
<name>hlsls99</name>
<cmt>r</cmt>
<desc>Lessines Sentier n°99 </desc>
<link href="https://chemins.be/lessines/sentier/99"/><trkseg>
<trkpt lat="50.694040" lon="3.835083"><time>2026-05-02T18:42:09Z</time></trkpt>
<trkpt lat="50.693152" lon="3.835670"><time>2026-05-02T18:52:09Z</time></trkpt>
<trkpt lat="50.693088" lon="3.835942"><time>2026-05-02T19:02:09Z</time></trkpt>
</trkseg></trk>
<trk>
<name>hlsls99</name>
<cmt>q</cmt>
<desc>Lessines Sentier n°99 </desc>
<link href="https://chemins.be/lessines/sentier/99"/><trkseg>
<trkpt lat="50.693088" lon="3.835942"><time>2026-05-02T19:02:09Z</time></trkpt>
<trkpt lat="50.690006" lon="3.835128"><time>2026-05-02T19:12:09Z</time></trkpt>
<trkpt lat="50.689581" lon="3.835155"><time>2026-05-02T19:22:09Z</time></trkpt>
<trkpt lat="50.687324" lon="3.831636"><time>2026-05-02T19:32:09Z</time></trkpt>
<trkpt lat="50.685611" lon="3.830949"><time>2026-05-02T19:42:09Z</time></trkpt>
</trkseg>
</trk>
<trk>
<name>hlslsi1</name>
<cmt>r</cmt>
<desc>Lessines Chemin n°i1 Chemin de la Chasse aux Loups</desc>
<link href="https://chemins.be/lessines/chemin/i1"/><trkseg>
<trkpt lat="50.698739" lon="3.834487"><time>2026-05-02T18:32:09Z</time></trkpt>
<trkpt lat="50.698175" lon="3.833120"><time>2026-05-02T18:42:09Z</time></trkpt>
<trkpt lat="50.698201" lon="3.832752"><time>2026-05-02T18:52:09Z</time></trkpt>
</trkseg></trk>
<trk>
<name>hlslsi1</name>
<cmt>s</cmt>
<desc>Lessines Chemin n°i1 Chemin de la Chasse aux Loups</desc>
<link href="https://chemins.be/lessines/chemin/i1"/><trkseg>
<trkpt lat="50.698201" lon="3.832752"><time>2026-05-02T18:52:09Z</time></trkpt>
<trkpt lat="50.698388" lon="3.832467"><time>2026-05-02T19:02:09Z</time></trkpt>
</trkseg></trk>
<trk>
<name>hlslsi1</name>
<cmt>r</cmt>
<desc>Lessines Chemin n°i1 Chemin de la Chasse aux Loups</desc>
<link href="https://chemins.be/lessines/chemin/i1"/><trkseg>
<trkpt lat="50.698388" lon="3.832467"><time>2026-05-02T19:02:09Z</time></trkpt>
<trkpt lat="50.698495" lon="3.832239"><time>2026-05-02T19:12:09Z</time></trkpt>
<trkpt lat="50.699721" lon="3.831064"><time>2026-05-02T19:22:09Z</time></trkpt>
</trkseg>
</trk>
<trk>
<name>hlslsi10</name>
<cmt>v</cmt>
<desc>Lessines Sentier n°i10 </desc>
<link href="https://chemins.be/lessines/sentier/i10"/><trkseg>
<trkpt lat="50.707849" lon="3.821401"><time>2026-05-02T18:32:09Z</time></trkpt>
<trkpt lat="50.708226" lon="3.821326"><time>2026-05-02T18:42:09Z</time></trkpt>
</trkseg>
</trk>
<trk>
<name>hlslsi11</name>
<cmt>v</cmt>
<desc>Lessines Chemin n°i11 </desc>
<link href="https://chemins.be/lessines/chemin/i11"/><trkseg>
<trkpt lat="50.722003" lon="3.840811"><time>2026-05-02T18:32:09Z</time></trkpt>
<trkpt lat="50.722649" lon="3.840800"><time>2026-05-02T18:42:09Z</time></trkpt>
<trkpt lat="50.724462" lon="3.839330"><time>2026-05-02T18:52:09Z</time></trkpt>
</trkseg>
</trk>
<trk>
<name>hlslsi12</name>
<cmt>v</cmt>
<desc>Lessines Chemin n°i12 Chemin du Pavillon</desc>
<link href="https://chemins.be/lessines/chemin/i12"/><trkseg>
<trkpt lat="50.718728" lon="3.802388"><time>2026-05-02T18:32:09Z</time></trkpt>
<trkpt lat="50.719061" lon="3.802385"><time>2026-05-02T18:42:09Z</time></trkpt>
</trkseg>
</trk>
<trk>
<name>hlslsi13</name>
<cmt>r</cmt>
<desc>Lessines Chemin n°i13 Chemin de Bronchenne</desc>
<link href="https://chemins.be/lessines/chemin/i13"/><trkseg>
<trkpt lat="50.698239" lon="3.849129"><time>2026-05-02T18:32:09Z</time></trkpt>
<trkpt lat="50.698063" lon="3.850008"><time>2026-05-02T18:42:09Z</time></trkpt>
</trkseg></trk>
<trk>
<name>hlslsi13</name>
<cmt>v</cmt>
<desc>Lessines Chemin n°i13 Chemin de Bronchenne</desc>
<link href="https://chemins.be/lessines/chemin/i13"/><trkseg>
<trkpt lat="50.698063" lon="3.850008"><time>2026-05-02T18:42:09Z</time></trkpt>
<trkpt lat="50.697627" lon="3.851725"><time>2026-05-02T18:52:09Z</time></trkpt>
<trkpt lat="50.696973" lon="3.853686"><time>2026-05-02T19:02:09Z</time></trkpt>
</trkseg>
</trk>
<trk>
<name>hlslsi2</name>
<cmt>v</cmt>
<desc>Lessines Sentier n°i2 </desc>
<link href="https://chemins.be/lessines/sentier/i2"/><trkseg>
<trkpt lat="50.703262" lon="3.830826"><time>2026-05-02T18:32:09Z</time></trkpt>
<trkpt lat="50.704758" lon="3.829648"><time>2026-05-02T18:42:09Z</time></trkpt>
</trkseg>
</trk>
<trk>
<name>hlslsi3</name>
<cmt>v</cmt>
<desc>Lessines Sentier n°i3 </desc>
<link href="https://chemins.be/lessines/sentier/i3"/><trkseg>
<trkpt lat="50.704533" lon="3.833048"><time>2026-05-02T18:32:09Z</time></trkpt>
<trkpt lat="50.705103" lon="3.834298"><time>2026-05-02T18:42:09Z</time></trkpt>
<trkpt lat="50.705223" lon="3.834788"><time>2026-05-02T18:52:09Z</time></trkpt>
<trkpt lat="50.705003" lon="3.835298"><time>2026-05-02T19:02:09Z</time></trkpt>
<trkpt lat="50.705363" lon="3.835378"><time>2026-05-02T19:12:09Z</time></trkpt>
<trkpt lat="50.705349" lon="3.835252"><time>2026-05-02T19:22:09Z</time></trkpt>
<trkpt lat="50.705372" lon="3.835178"><time>2026-05-02T19:32:09Z</time></trkpt>
<trkpt lat="50.705424" lon="3.835220"><time>2026-05-02T19:42:09Z</time></trkpt>
<trkpt lat="50.706283" lon="3.835378"><time>2026-05-02T19:52:09Z</time></trkpt>
<trkpt lat="50.707003" lon="3.835458"><time>2026-05-02T20:02:09Z</time></trkpt>
<trkpt lat="50.708043" lon="3.835558"><time>2026-05-02T20:12:09Z</time></trkpt>
<trkpt lat="50.708133" lon="3.835548"><time>2026-05-02T20:22:09Z</time></trkpt>
</trkseg>
</trk>
<trk>
<name>hlslsi4</name>
<cmt>v</cmt>
<desc>Lessines Chemin n°i4 </desc>
<link href="https://chemins.be/lessines/chemin/i4"/><trkseg>
<trkpt lat="50.699813" lon="3.835451"><time>2026-05-02T18:32:09Z</time></trkpt>
<trkpt lat="50.700094" lon="3.835887"><time>2026-05-02T18:42:09Z</time></trkpt>
<trkpt lat="50.700298" lon="3.837258"><time>2026-05-02T18:52:09Z</time></trkpt>
<trkpt lat="50.700014" lon="3.839979"><time>2026-05-02T19:02:09Z</time></trkpt>
</trkseg>
</trk>
<trk>
<name>hlslsi5</name>
<cmt>r</cmt>
<desc>Lessines Chemin n°i5 Rue Georges Kugé</desc>
<link href="https://chemins.be/lessines/chemin/i5"/><trkseg>
<trkpt lat="50.710913" lon="3.830908"><time>2026-05-02T18:32:09Z</time></trkpt>
<trkpt lat="50.710690" lon="3.831137"><time>2026-05-02T18:42:09Z</time></trkpt>
</trkseg>
</trk>
<trk>
<name>hlslsi6</name>
<cmt>v</cmt>
<desc>Lessines Sentier n°i6 </desc>
<link href="https://chemins.be/lessines/sentier/i6"/><trkseg>
<trkpt lat="50.706402" lon="3.845259"><time>2026-05-02T18:32:09Z</time></trkpt>
<trkpt lat="50.706437" lon="3.844975"><time>2026-05-02T18:42:09Z</time></trkpt>
<trkpt lat="50.706472" lon="3.844805"><time>2026-05-02T18:52:09Z</time></trkpt>
<trkpt lat="50.706595" lon="3.844152"><time>2026-05-02T19:02:09Z</time></trkpt>
<trkpt lat="50.706709" lon="3.843571"><time>2026-05-02T19:12:09Z</time></trkpt>
<trkpt lat="50.706709" lon="3.843471"><time>2026-05-02T19:22:09Z</time></trkpt>
<trkpt lat="50.706708" lon="3.843344"><time>2026-05-02T19:32:09Z</time></trkpt>
<trkpt lat="50.706699" lon="3.843217"><time>2026-05-02T19:42:09Z</time></trkpt>
<trkpt lat="50.706689" lon="3.843047"><time>2026-05-02T19:52:09Z</time></trkpt>
<trkpt lat="50.706670" lon="3.842877"><time>2026-05-02T20:02:09Z</time></trkpt>
<trkpt lat="50.706633" lon="3.842665"><time>2026-05-02T20:12:09Z</time></trkpt>
<trkpt lat="50.706524" lon="3.842327"><time>2026-05-02T20:22:09Z</time></trkpt>
</trkseg>
</trk>
<trk>
<name>hlslsi7</name>
<cmt>v</cmt>
<desc>Lessines Sentier n°i7 </desc>
<link href="https://chemins.be/lessines/sentier/i7"/><trkseg>
<trkpt lat="50.710184" lon="3.828835"><time>2026-05-02T18:32:09Z</time></trkpt>
<trkpt lat="50.710448" lon="3.829342"><time>2026-05-02T18:42:09Z</time></trkpt>
<trkpt lat="50.710439" lon="3.829399"><time>2026-05-02T18:52:09Z</time></trkpt>
<trkpt lat="50.710593" lon="3.829638"><time>2026-05-02T19:02:09Z</time></trkpt>
<trkpt lat="50.710675" lon="3.829821"><time>2026-05-02T19:12:09Z</time></trkpt>
<trkpt lat="50.710783" lon="3.829890"><time>2026-05-02T19:22:09Z</time></trkpt>
<trkpt lat="50.710801" lon="3.830032"><time>2026-05-02T19:32:09Z</time></trkpt>
<trkpt lat="50.710928" lon="3.830257"><time>2026-05-02T19:42:09Z</time></trkpt>
</trkseg>
</trk>
<trk>
<name>hlslsi8</name>
<cmt>v</cmt>
<desc>Lessines Sentier n°i8 Parvis St Pierre</desc>
<link href="https://chemins.be/lessines/sentier/i8"/><trkseg>
<trkpt lat="50.712559" lon="3.831102"><time>2026-05-02T18:32:09Z</time></trkpt>
<trkpt lat="50.712407" lon="3.831316"><time>2026-05-02T18:42:09Z</time></trkpt>
<trkpt lat="50.712345" lon="3.831458"><time>2026-05-02T18:52:09Z</time></trkpt>
<trkpt lat="50.712138" lon="3.831461"><time>2026-05-02T19:02:09Z</time></trkpt>
<trkpt lat="50.712102" lon="3.831334"><time>2026-05-02T19:12:09Z</time></trkpt>
<trkpt lat="50.712046" lon="3.830825"><time>2026-05-02T19:22:09Z</time></trkpt>
</trkseg>
</trk>
<trk>
<name>hlslsi9</name>
<cmt>v</cmt>
<desc>Lessines Sentier n°i9 </desc>
<link href="https://chemins.be/lessines/sentier/i9"/><trkseg>
<trkpt lat="50.715475" lon="3.845555"><time>2026-05-02T18:32:09Z</time></trkpt>
<trkpt lat="50.715144" lon="3.845898"><time>2026-05-02T18:42:09Z</time></trkpt>
<trkpt lat="50.715125" lon="3.845870"><time>2026-05-02T18:52:09Z</time></trkpt>
<trkpt lat="50.714677" lon="3.846130"><time>2026-05-02T19:02:09Z</time></trkpt>
</trkseg>
</trk>
<trk>
<name>hlslsL87</name>
<cmt>v</cmt>
<desc>Lessines Chemin n°L87 </desc>
<link href="https://chemins.be/lessines/chemin/L87"/><trkseg>
<trkpt lat="50.719587" lon="3.816097"><time>2026-05-02T18:32:09Z</time></trkpt>
<trkpt lat="50.719335" lon="3.810725"><time>2026-05-02T18:42:09Z</time></trkpt>
<trkpt lat="50.719300" lon="3.809987"><time>2026-05-02T18:52:09Z</time></trkpt>
<trkpt lat="50.719152" lon="3.804982"><time>2026-05-02T19:02:09Z</time></trkpt>
<trkpt lat="50.719061" lon="3.802306"><time>2026-05-02T19:12:09Z</time></trkpt>
<trkpt lat="50.718893" lon="3.797359"><time>2026-05-02T19:22:09Z</time></trkpt>
</trkseg>
</trk>
</gpx>